createdAt,value
2023-04-20T00:00:14.294Z,12.95
2023-04-20T00:02:16.653Z,12.45
2023-04-20T00:04:18.934Z,11.48
2023-04-20T00:06:22.018Z,12.73
2023-04-20T00:08:24.218Z,13.45
2023-04-20T00:10:26.403Z,13.10
2023-04-20T00:12:28.584Z,12.52
2023-04-20T00:14:30.922Z,14.48
2023-04-20T00:16:33.234Z,12.73
2023-04-20T00:18:35.416Z,13.32
2023-04-20T00:20:37.706Z,14.02
2023-04-20T00:22:39.953Z,14.23
2023-04-20T00:24:42.089Z,15.60
2023-04-20T00:26:44.244Z,15.20
2023-04-20T00:28:46.471Z,15.43
2023-04-20T00:30:48.661Z,13.27
2023-04-20T00:32:51.270Z,15.23
2023-04-20T00:34:53.420Z,13.20
2023-04-20T00:36:55.599Z,13.23
2023-04-20T00:38:57.826Z,14.90
2023-04-20T00:40:59.979Z,12.88
2023-04-20T00:43:20.058Z,12.15
2023-04-20T00:45:22.265Z,13.55
2023-04-20T00:47:24.481Z,13.18
2023-04-20T00:49:30.910Z,10.73
2023-04-20T00:51:33.085Z,13.40
2023-04-20T00:53:35.513Z,13.68
2023-04-20T00:55:38.658Z,17.90
2023-04-20T00:57:41.634Z,11.60
2023-04-20T00:59:43.810Z,13.30
2023-04-20T01:01:45.991Z,12.98
2023-04-20T01:03:48.409Z,12.38
2023-04-20T01:05:50.733Z,13.32
2023-04-20T01:07:52.884Z,12.30
2023-04-20T01:09:55.221Z,11.85
2023-04-20T01:11:57.334Z,14.88
2023-04-20T01:13:59.483Z,13.43
2023-04-20T01:16:01.967Z,12.77
2023-04-20T01:18:05.948Z,12.70
2023-04-20T01:20:15.103Z,12.05
2023-04-20T01:22:21.357Z,13.35
2023-04-20T01:24:23.520Z,13.05
2023-04-20T01:26:25.987Z,11.57
2023-04-20T01:28:28.110Z,11.27
2023-04-20T01:30:30.369Z,12.27
2023-04-20T01:32:32.519Z,12.70
2023-04-20T01:34:34.835Z,11.15
2023-04-20T01:36:37.014Z,10.10
2023-04-20T01:38:39.241Z,11.85
2023-04-20T01:40:41.399Z,12.70
2023-04-20T01:42:43.561Z,11.07
2023-04-20T01:44:45.730Z,11.57
2023-04-20T01:46:47.982Z,8.30
2023-04-20T01:48:50.170Z,8.77
2023-04-20T01:50:52.658Z,8.20
2023-04-20T01:52:54.805Z,10.15
2023-04-20T01:54:56.964Z,7.57
2023-04-20T01:56:59.083Z,7.65
2023-04-20T01:59:01.247Z,9.40
2023-04-20T02:01:03.409Z,7.38
2023-04-20T02:03:05.912Z,8.90
2023-04-20T02:07:10.539Z,8.70
2023-04-20T02:09:12.684Z,8.20
2023-04-20T02:11:14.889Z,8.68
2023-04-20T02:13:17.072Z,10.38
2023-04-20T02:15:19.271Z,9.70
2023-04-20T02:17:21.509Z,8.80
2023-04-20T02:19:24.297Z,9.07
2023-04-20T02:23:28.548Z,10.63
2023-04-20T02:25:30.997Z,9.65
2023-04-20T02:27:33.707Z,9.73
2023-04-20T02:31:38.038Z,10.05
2023-04-20T02:33:41.521Z,11.15
2023-04-20T02:35:43.750Z,11.10
2023-04-20T02:37:46.595Z,11.88
2023-04-20T02:39:48.741Z,11.23
2023-04-20T02:41:51.117Z,11.50
2023-04-20T02:43:53.280Z,9.95
2023-04-20T02:45:55.541Z,10.50
2023-04-20T02:47:57.944Z,11.77
2023-04-20T02:50:00.309Z,10.45
2023-04-20T02:52:02.521Z,11.55
2023-04-20T02:54:04.749Z,11.25
2023-04-20T02:56:06.971Z,10.55
2023-04-20T02:58:10.264Z,11.75
2023-04-20T03:00:13.694Z,11.20
2023-04-20T03:02:16.100Z,12.15
2023-04-20T03:04:19.446Z,10.15
2023-04-20T03:06:22.080Z,12.13
2023-04-20T03:08:24.330Z,9.73
2023-04-20T03:10:26.749Z,10.13
2023-04-20T03:12:29.035Z,13.05
2023-04-20T03:14:31.316Z,10.35
2023-04-20T03:16:33.594Z,9.45
2023-04-20T03:18:35.833Z,8.98
2023-04-20T03:20:37.969Z,10.80
2023-04-20T03:22:40.296Z,11.85
2023-04-20T03:24:42.420Z,11.75
2023-04-20T03:26:44.533Z,13.00
2023-04-20T03:28:46.783Z,12.18
2023-04-20T03:30:49.014Z,11.93
2023-04-20T03:32:51.333Z,12.35
2023-04-20T03:34:53.517Z,12.38
2023-04-20T03:36:55.680Z,13.02
2023-04-20T03:38:57.876Z,14.10
2023-04-20T03:41:00.024Z,14.57
2023-04-20T03:43:02.152Z,12.90
2023-04-20T03:45:05.040Z,12.02
2023-04-20T03:47:07.224Z,14.35
2023-04-20T03:49:09.379Z,13.52
2023-04-20T03:51:11.582Z,12.80
2023-04-20T03:53:13.772Z,12.90
2023-04-20T03:55:15.916Z,11.52
2023-04-20T03:57:18.054Z,11.40
2023-04-20T03:59:20.614Z,12.40
2023-04-20T04:01:22.781Z,12.80
2023-04-20T04:03:25.181Z,11.35
2023-04-20T04:07:29.690Z,11.65
2023-04-20T04:09:31.915Z,12.23
2023-04-20T04:11:34.077Z,10.35
2023-04-20T04:13:36.257Z,11.68
2023-04-20T04:15:38.396Z,11.77
2023-04-20T04:17:40.702Z,10.80
2023-04-20T04:19:43.718Z,11.35
2023-04-20T04:21:45.952Z,14.20
2023-04-20T04:23:48.124Z,11.52
2023-04-20T04:25:50.273Z,12.65
2023-04-20T04:27:53.169Z,10.25
2023-04-20T04:29:55.528Z,12.40
2023-04-20T04:31:58.452Z,12.90
2023-04-20T04:34:01.043Z,9.43
2023-04-20T04:36:04.037Z,9.30
2023-04-20T04:38:06.269Z,9.65
2023-04-20T04:40:09.175Z,11.73
2023-04-20T04:42:11.347Z,9.43
2023-04-20T04:44:13.603Z,8.80
2023-04-20T04:46:15.877Z,8.95
2023-04-20T04:48:19.021Z,9.18
2023-04-20T04:50:22.156Z,8.77
2023-04-20T04:52:24.335Z,9.75
2023-04-20T04:54:26.495Z,8.80
2023-04-20T04:56:28.847Z,9.43
2023-04-20T04:58:31.017Z,9.13
2023-04-20T05:00:33.200Z,9.85
2023-04-20T05:02:35.772Z,9.48
2023-04-20T05:06:40.481Z,11.27
2023-04-20T05:08:42.660Z,11.07
2023-04-20T05:10:44.974Z,9.80
2023-04-20T05:12:48.662Z,9.63
2023-04-20T05:14:50.934Z,10.30
2023-04-20T05:16:53.154Z,7.97
2023-04-20T05:18:55.492Z,8.05
2023-04-20T05:20:57.899Z,7.60
2023-04-20T05:23:00.202Z,7.90
2023-04-20T05:25:02.399Z,10.20
2023-04-20T05:27:04.648Z,7.97
2023-04-20T05:29:06.833Z,9.35
2023-04-20T05:31:09.107Z,7.93
2023-04-20T05:33:11.324Z,8.57
2023-04-20T05:35:13.549Z,8.43
2023-04-20T05:37:16.684Z,8.70
2023-04-20T05:39:19.131Z,9.48
2023-04-20T05:41:26.776Z,10.48
2023-04-20T05:43:28.975Z,8.75
2023-04-20T05:45:33.050Z,10.15
2023-04-20T05:47:35.329Z,9.25
2023-04-20T05:49:37.597Z,9.50
2023-04-20T05:51:40.281Z,10.52
2023-04-20T05:55:44.562Z,8.80
2023-04-20T05:57:46.719Z,7.53
2023-04-20T05:59:48.921Z,8.95
2023-04-20T06:01:51.209Z,7.93
2023-04-20T06:03:53.536Z,7.78
2023-04-20T06:05:55.805Z,8.15
2023-04-20T06:07:57.963Z,7.95
2023-04-20T06:10:01.866Z,7.75
2023-04-20T06:12:04.072Z,6.78
2023-04-20T06:14:06.191Z,6.38
2023-04-20T06:16:10.895Z,7.03
2023-04-20T06:18:13.247Z,6.78
2023-04-20T06:20:15.758Z,7.00
2023-04-20T06:22:18.309Z,8.05
2023-04-20T06:24:20.515Z,8.73
2023-04-20T06:26:23.301Z,9.55
2023-04-20T06:28:25.468Z,7.65
2023-04-20T06:30:27.633Z,8.38
2023-04-20T06:32:29.785Z,7.82
2023-04-20T06:34:31.999Z,8.93
2023-04-20T06:36:34.187Z,7.90
2023-04-20T06:38:36.370Z,8.10
2023-04-20T06:40:38.643Z,7.78
2023-04-20T06:42:41.078Z,8.35
2023-04-20T06:44:43.212Z,9.68
2023-04-20T06:46:45.436Z,8.05
2023-04-20T06:48:47.587Z,7.95
2023-04-20T06:50:50.570Z,7.43
2023-04-20T06:52:52.752Z,6.10
2023-04-20T06:54:55.342Z,6.70
2023-04-20T06:58:59.777Z,6.32
2023-04-20T07:01:02.706Z,6.15
2023-04-20T07:03:05.020Z,8.48
2023-04-20T07:05:07.285Z,7.35
2023-04-20T07:07:09.458Z,6.35
2023-04-20T07:09:11.676Z,6.72
2023-04-20T07:11:13.888Z,7.60
2023-04-20T07:13:16.219Z,7.18
2023-04-20T07:15:18.446Z,7.90
2023-04-20T07:17:20.595Z,8.38
2023-04-20T07:19:22.820Z,7.55
2023-04-20T07:21:24.983Z,7.45
2023-04-20T07:23:27.157Z,7.18
2023-04-20T07:25:31.478Z,7.22
2023-04-20T07:27:37.291Z,7.38
2023-04-20T07:29:39.488Z,7.50
2023-04-20T07:31:41.662Z,8.55
2023-04-20T07:33:44.075Z,10.10
2023-04-20T07:35:46.238Z,12.10
2023-04-20T07:37:48.404Z,12.15
2023-04-20T07:39:52.661Z,11.30
2023-04-20T07:41:55.005Z,13.63
2023-04-20T07:43:57.117Z,10.23
2023-04-20T07:45:59.325Z,10.80
2023-04-20T07:48:02.503Z,10.32
2023-04-20T07:50:05.875Z,9.48
2023-04-20T07:52:16.316Z,10.85
2023-04-20T07:54:19.275Z,10.30
2023-04-20T07:56:21.618Z,16.17
2023-04-20T07:58:24.143Z,10.80
2023-04-20T08:00:26.414Z,10.07
2023-04-20T08:02:28.742Z,10.07
2023-04-20T08:04:31.745Z,9.32
2023-04-20T08:06:34.212Z,8.70
2023-04-20T08:08:36.957Z,8.57
2023-04-20T08:10:39.159Z,8.00
2023-04-20T08:12:41.401Z,10.13
2023-04-20T08:14:43.856Z,7.20
2023-04-20T08:16:46.084Z,7.90
2023-04-20T08:18:48.205Z,8.52
2023-04-20T08:20:51.465Z,7.43
2023-04-20T08:22:53.638Z,7.35
2023-04-20T08:24:55.825Z,9.10
2023-04-20T08:26:59.342Z,10.70
2023-04-20T08:29:02.317Z,10.93
2023-04-20T08:31:04.535Z,12.57
2023-04-20T08:33:06.835Z,13.35
2023-04-20T08:35:09.401Z,15.45
2023-04-20T08:37:11.668Z,13.95
2023-04-20T08:39:15.019Z,15.75
2023-04-20T08:41:17.191Z,14.85
2023-04-20T08:43:20.688Z,13.45
2023-04-20T08:45:24.107Z,15.23
2023-04-20T08:47:26.626Z,14.80
2023-04-20T08:49:32.779Z,16.63
2023-04-20T08:51:35.023Z,12.80
2023-04-20T08:53:37.207Z,14.38
2023-04-20T08:55:39.414Z,12.57
2023-04-20T08:57:41.661Z,12.93
2023-04-20T08:59:43.920Z,14.00
2023-04-20T09:01:46.429Z,13.55
2023-04-20T09:03:48.739Z,12.43
2023-04-20T09:05:50.940Z,13.88
2023-04-20T09:07:53.565Z,13.02
2023-04-20T09:12:05.387Z,13.68
2023-04-20T09:14:12.506Z,15.25
2023-04-20T09:16:15.316Z,14.73
2023-04-20T09:18:17.642Z,14.40
2023-04-20T09:20:29.673Z,15.75
2023-04-20T09:22:36.213Z,14.40
2023-04-20T09:24:39.720Z,13.75
2023-04-20T09:26:41.922Z,13.35
2023-04-20T09:28:44.368Z,13.68
2023-04-20T09:30:48.636Z,13.68
2023-04-20T09:33:01.085Z,13.43
2023-04-20T09:35:03.473Z,13.82
2023-04-20T09:37:07.343Z,14.15
2023-04-20T09:39:11.113Z,16.55
2023-04-20T09:41:13.320Z,15.27
2023-04-20T09:43:19.817Z,14.73
2023-04-20T09:45:22.087Z,15.70
2023-04-20T09:47:26.641Z,15.20
2023-04-20T09:49:29.131Z,14.32
2023-04-20T09:51:32.877Z,16.02
2023-04-20T09:53:35.836Z,14.05
2023-04-20T09:55:38.867Z,17.48
2023-04-20T09:57:41.406Z,13.90
2023-04-20T09:59:44.061Z,14.35
2023-04-20T10:03:48.850Z,12.77
2023-04-20T10:08:01.189Z,13.73
2023-04-20T10:10:16.973Z,14.18
2023-04-20T10:12:20.272Z,12.65
2023-04-20T10:14:23.501Z,12.65
2023-04-20T10:16:26.592Z,12.80
2023-04-20T10:18:28.863Z,11.52
2023-04-20T10:20:31.078Z,11.80
2023-04-20T10:22:33.854Z,12.13
2023-04-20T10:24:38.205Z,11.43
2023-04-20T10:26:41.307Z,11.65
2023-04-20T10:28:45.004Z,12.27
2023-04-20T10:30:50.978Z,13.45
2023-04-20T10:33:09.861Z,14.60
2023-04-20T10:35:14.019Z,14.90
2023-04-20T10:37:16.203Z,16.08
2023-04-20T10:39:19.773Z,14.93
2023-04-20T10:41:22.338Z,13.98
2023-04-20T10:43:24.492Z,13.95
2023-04-20T10:45:36.539Z,13.43
2023-04-20T10:47:41.123Z,13.20
2023-04-20T10:49:43.396Z,12.25
2023-04-20T10:51:52.208Z,13.18
2023-04-20T10:54:07.837Z,13.25
2023-04-20T10:56:10.941Z,13.32
2023-04-20T11:00:25.713Z,12.27
2023-04-20T11:02:28.322Z,12.52
2023-04-20T11:06:33.648Z,11.55
2023-04-20T11:08:38.891Z,12.20
2023-04-20T11:10:42.705Z,11.60
2023-04-20T11:12:44.815Z,12.57
2023-04-20T11:14:58.010Z,12.32
2023-04-20T11:17:00.616Z,12.32
2023-04-20T11:19:03.861Z,13.38
2023-04-20T11:21:06.033Z,12.50
2023-04-20T11:23:08.181Z,13.38
2023-04-20T11:25:11.220Z,13.52
2023-04-20T11:27:21.123Z,12.40
2023-04-20T11:29:34.141Z,12.75
2023-04-20T11:31:37.427Z,12.48
2023-04-20T11:33:39.749Z,12.10
2023-04-20T11:35:42.700Z,12.02
2023-04-20T11:37:51.089Z,11.77
2023-04-20T11:40:04.730Z,12.20
2023-04-20T11:42:06.891Z,10.30
2023-04-20T11:44:09.367Z,10.70
2023-04-20T11:46:15.645Z,9.70
2023-04-20T11:48:18.860Z,9.90
2023-04-20T11:50:21.724Z,9.85
2023-04-20T11:52:23.852Z,10.45
2023-04-20T11:54:28.208Z,10.48
2023-04-20T11:56:30.702Z,11.18
2023-04-20T11:58:32.868Z,10.48
2023-04-20T12:00:35.281Z,11.85
2023-04-20T12:02:37.518Z,10.35
2023-04-20T12:04:39.922Z,10.40
2023-04-20T12:06:42.559Z,8.85
2023-04-20T12:08:44.777Z,9.40
2023-04-20T12:10:47.196Z,9.75
2023-04-20T12:12:49.383Z,10.63
2023-04-20T12:14:51.540Z,9.93
2023-04-20T12:16:53.741Z,11.07
2023-04-20T12:18:56.387Z,11.43
2023-04-20T12:23:02.328Z,13.27
2023-04-20T12:25:05.244Z,10.82
2023-04-20T12:27:07.467Z,11.23
2023-04-20T12:29:09.745Z,14.18
2023-04-20T12:31:12.039Z,10.57
2023-04-20T12:33:14.425Z,9.93
2023-04-20T12:35:16.660Z,10.32
2023-04-20T12:37:20.205Z,9.52
2023-04-20T12:39:22.401Z,10.50
2023-04-20T12:41:24.574Z,10.73
2023-04-20T12:43:26.947Z,10.85
2023-04-20T12:45:29.777Z,12.63
2023-04-20T12:47:32.285Z,10.77
2023-04-20T12:49:34.477Z,11.13
2023-04-20T12:51:36.770Z,10.18
2023-04-20T12:53:38.968Z,11.38
2023-04-20T12:55:41.237Z,10.90
2023-04-20T12:57:43.415Z,12.32
2023-04-20T12:59:48.591Z,11.70
2023-04-20T13:01:50.781Z,12.07
2023-04-20T13:03:53.258Z,13.43
2023-04-20T13:05:55.627Z,12.63
2023-04-20T13:07:57.815Z,12.13
2023-04-20T13:10:01.129Z,11.27
2023-04-20T13:12:03.268Z,13.10
2023-04-20T13:14:05.751Z,14.18
2023-04-20T13:16:07.926Z,10.60
2023-04-20T13:18:10.313Z,13.48
2023-04-20T13:20:12.737Z,11.20
2023-04-20T13:22:18.092Z,9.95
2023-04-20T13:24:21.173Z,10.88
2023-04-20T13:26:23.356Z,10.30
2023-04-20T13:28:25.809Z,10.85
2023-04-20T13:30:28.173Z,11.20
2023-04-20T13:32:30.349Z,13.35
2023-04-20T13:34:32.562Z,11.30
2023-04-20T13:36:34.703Z,11.32
2023-04-20T13:38:36.839Z,11.20
2023-04-20T13:40:39.010Z,11.23
2023-04-20T13:42:41.258Z,12.00
2023-04-20T13:44:43.419Z,12.40
2023-04-20T13:46:46.814Z,12.88
2023-04-20T13:48:49.014Z,12.77
2023-04-20T13:50:51.310Z,13.52
2023-04-20T13:52:53.491Z,12.85
2023-04-20T13:54:55.726Z,12.38
2023-04-20T13:56:57.915Z,16.10
2023-04-20T13:59:00.437Z,19.05
2023-04-20T14:01:07.782Z,20.42
2023-04-20T14:03:10.693Z,18.67
2023-04-20T14:05:13.049Z,19.27
2023-04-20T14:07:15.238Z,15.52
2023-04-20T14:09:17.402Z,19.02
2023-04-20T14:11:19.571Z,18.83
2023-04-20T14:13:21.804Z,18.20
2023-04-20T14:15:23.970Z,18.25
2023-04-20T14:17:26.691Z,21.67
2023-04-20T14:19:28.955Z,18.00
2023-04-20T14:21:32.921Z,18.85
2023-04-20T14:23:35.070Z,20.98
2023-04-20T14:25:37.299Z,23.33
2023-04-20T14:27:39.473Z,22.02
2023-04-20T14:29:41.779Z,21.00
2023-04-20T14:31:44.026Z,19.45
2023-04-20T14:33:46.618Z,19.90
2023-04-20T14:35:48.817Z,18.27
2023-04-20T14:37:50.975Z,19.40
2023-04-20T14:39:53.134Z,20.92
2023-04-20T14:41:56.205Z,21.05
2023-04-20T14:46:00.923Z,22.55
2023-04-20T14:50:05.549Z,24.38
2023-04-20T14:52:07.841Z,24.60
2023-04-20T14:54:10.069Z,25.27
2023-04-20T14:56:13.366Z,21.25
2023-04-20T14:58:18.951Z,22.15
2023-04-20T15:00:23.457Z,24.67
2023-04-20T15:02:25.891Z,22.45
2023-04-20T15:04:28.413Z,23.00
2023-04-20T15:06:32.050Z,26.58
2023-04-20T15:08:34.263Z,30.35
2023-04-20T15:10:38.029Z,30.50
2023-04-20T15:12:40.400Z,25.75
2023-04-20T15:14:42.542Z,24.52
2023-04-20T15:16:44.693Z,24.95
2023-04-20T15:18:46.911Z,23.65
2023-04-20T15:20:51.424Z,21.50
2023-04-20T15:22:53.621Z,20.67
2023-04-20T15:24:55.861Z,21.00
2023-04-20T15:26:58.042Z,22.73
2023-04-20T15:29:00.344Z,20.42
2023-04-20T15:31:02.471Z,23.17
2023-04-20T15:33:05.485Z,19.75
2023-04-20T15:35:08.158Z,22.05
2023-04-20T15:37:10.447Z,19.48
2023-04-20T15:39:13.111Z,21.70
2023-04-20T15:43:18.471Z,20.60
2023-04-20T15:45:20.993Z,19.88
2023-04-20T15:47:23.208Z,23.52
2023-04-20T15:49:25.392Z,22.13
2023-04-20T15:51:28.099Z,20.67
2023-04-20T15:55:34.636Z,23.83
2023-04-20T15:57:36.892Z,20.75
2023-04-20T15:59:39.074Z,19.85
2023-04-20T16:01:41.289Z,22.98
2023-04-20T16:03:45.812Z,24.25
2023-04-20T16:05:48.218Z,18.48
2023-04-20T16:07:50.459Z,20.55
2023-04-20T16:09:52.617Z,21.33
2023-04-20T16:11:54.791Z,17.55
2023-04-20T16:13:57.924Z,18.15
2023-04-20T16:16:00.102Z,23.58
2023-04-20T16:18:04.869Z,18.02
2023-04-20T16:20:07.469Z,18.58
2023-04-20T16:22:09.643Z,19.08
2023-04-20T16:24:11.824Z,20.48
2023-04-20T16:26:14.006Z,22.80
2023-04-20T16:28:16.140Z,20.88
2023-04-20T16:30:18.549Z,18.40
2023-04-20T16:32:20.915Z,19.10
2023-04-20T16:34:24.435Z,21.30
2023-04-20T16:36:27.142Z,18.95
2023-04-20T16:40:31.499Z,19.88
2023-04-20T16:42:34.313Z,20.55
2023-04-20T16:44:36.763Z,18.50
2023-04-20T16:46:38.968Z,19.75
2023-04-20T16:48:41.203Z,19.70
2023-04-20T16:50:43.469Z,18.27
2023-04-20T16:52:48.941Z,18.80
2023-04-20T16:54:51.066Z,19.33
2023-04-20T16:56:53.263Z,19.13
2023-04-20T16:58:55.580Z,20.52
2023-04-20T17:00:57.830Z,17.98
2023-04-20T17:03:03.740Z,19.92
2023-04-20T17:05:07.258Z,20.40
2023-04-20T17:07:09.511Z,20.88
2023-04-20T17:09:11.687Z,21.88
2023-04-20T17:11:15.108Z,19.77
2023-04-20T17:13:17.507Z,22.23
2023-04-20T17:15:19.746Z,20.83
2023-04-20T17:17:22.124Z,21.17
2023-04-20T17:19:24.434Z,23.85
2023-04-20T17:21:28.965Z,24.95
2023-04-20T17:23:32.669Z,22.27
2023-04-20T17:25:35.291Z,21.20
2023-04-20T17:27:37.447Z,23.98
2023-04-20T17:29:43.045Z,22.00
2023-04-20T17:31:45.719Z,21.88
2023-04-20T17:35:50.358Z,19.55
2023-04-20T17:37:52.701Z,19.98
2023-04-20T17:39:54.881Z,20.92
2023-04-20T17:41:57.102Z,21.67
2023-04-20T17:43:59.218Z,19.70
2023-04-20T17:46:01.407Z,19.02
2023-04-20T17:48:03.642Z,22.45
2023-04-20T17:50:06.145Z,20.42
2023-04-20T17:52:09.504Z,20.95
2023-04-20T17:54:11.654Z,20.45
2023-04-20T17:56:13.821Z,23.02
2023-04-20T17:58:17.035Z,20.17
2023-04-20T18:00:20.451Z,19.90
2023-04-20T18:02:24.484Z,19.48
2023-04-20T18:04:27.132Z,20.38
2023-04-20T18:08:32.291Z,18.83
2023-04-20T18:10:34.466Z,20.42
2023-04-20T18:12:36.858Z,20.10
2023-04-20T18:14:40.789Z,20.48
2023-04-20T18:16:42.981Z,19.38
2023-04-20T18:18:45.286Z,19.15
2023-04-20T18:20:48.115Z,19.23
2023-04-20T18:22:50.616Z,17.38
2023-04-20T18:24:52.893Z,19.65
2023-04-20T18:26:55.082Z,18.77
2023-04-20T18:28:57.247Z,17.75
2023-04-20T18:31:00.960Z,19.52
2023-04-20T18:33:03.209Z,17.17
2023-04-20T18:35:08.546Z,18.40
2023-04-20T18:37:15.044Z,17.95
2023-04-20T18:39:17.223Z,19.38
2023-04-20T18:41:19.390Z,17.75
2023-04-20T18:43:21.556Z,17.70
2023-04-20T18:45:24.463Z,20.38
2023-04-20T18:47:27.118Z,19.05
2023-04-20T18:51:33.052Z,18.45
2023-04-20T18:53:35.245Z,19.33
2023-04-20T18:55:37.988Z,20.45
2023-04-20T18:59:42.214Z,18.45
2023-04-20T19:01:44.435Z,17.42
2023-04-20T19:03:47.989Z,19.00
2023-04-20T19:05:50.568Z,20.67
2023-04-20T19:07:52.725Z,20.10
2023-04-20T19:09:54.911Z,20.70
2023-04-20T19:11:58.481Z,20.90
2023-04-20T19:14:00.923Z,20.90
2023-04-20T19:16:03.399Z,17.65
2023-04-20T19:18:05.591Z,20.67
2023-04-20T19:20:09.476Z,21.20
2023-04-20T19:24:13.910Z,20.40
2023-04-20T19:26:17.046Z,21.80
2023-04-20T19:28:19.233Z,24.25
2023-04-20T19:30:21.719Z,18.83
2023-04-20T19:32:24.126Z,22.88
2023-04-20T19:34:27.115Z,24.60
2023-04-20T19:36:29.306Z,21.50
2023-04-20T19:38:31.650Z,23.17
2023-04-20T19:40:33.833Z,23.63
2023-04-20T19:42:36.849Z,22.20
2023-04-20T19:44:39.066Z,21.67
2023-04-20T19:46:43.416Z,21.42
2023-04-20T19:48:45.777Z,19.58
2023-04-20T19:50:48.044Z,21.23
2023-04-20T19:52:50.228Z,20.65
2023-04-20T19:54:52.453Z,20.85
2023-04-20T19:56:54.748Z,18.60
2023-04-20T19:58:56.884Z,22.25
2023-04-20T20:00:59.596Z,18.77
2023-04-20T20:05:04.320Z,19.07
2023-04-20T20:07:06.571Z,17.05
2023-04-20T20:09:08.758Z,18.30
2023-04-20T20:11:10.979Z,18.05
2023-04-20T20:13:13.197Z,16.65
2023-04-20T20:15:15.407Z,19.40
2023-04-20T20:17:19.531Z,14.95
2023-04-20T20:19:22.091Z,16.27
2023-04-20T20:21:24.332Z,16.50
2023-04-20T20:23:26.613Z,15.90
2023-04-20T20:25:28.898Z,12.98
2023-04-20T20:27:31.189Z,17.42
2023-04-20T20:29:33.374Z,16.13
2023-04-20T20:31:35.527Z,16.88
2023-04-20T20:33:37.788Z,16.27
2023-04-20T20:35:40.020Z,14.93
2023-04-20T20:37:42.243Z,17.38
2023-04-20T20:39:44.411Z,15.48
2023-04-20T20:41:46.666Z,12.98
2023-04-20T20:43:49.965Z,16.08
2023-04-20T20:45:52.494Z,13.23
2023-04-20T20:47:54.659Z,13.65
2023-04-20T20:49:57.038Z,16.20
2023-04-20T20:51:59.230Z,14.60
2023-04-20T20:54:01.441Z,14.38
2023-04-20T20:56:03.596Z,15.43
2023-04-20T20:58:05.733Z,17.75
2023-04-20T21:00:10.424Z,13.52
2023-04-20T21:02:12.761Z,14.23
2023-04-20T21:04:15.075Z,13.85
2023-04-20T21:06:17.957Z,14.73
2023-04-20T21:10:22.232Z,14.23
2023-04-20T21:12:24.371Z,15.10
2023-04-20T21:14:26.690Z,13.48
2023-04-20T21:16:29.170Z,13.38
2023-04-20T21:18:31.517Z,14.00
2023-04-20T21:20:34.439Z,13.30
2023-04-20T21:22:36.656Z,12.57
2023-04-20T21:24:38.886Z,14.20
2023-04-20T21:26:41.018Z,15.30
2023-04-20T21:28:43.184Z,12.23
2023-04-20T21:30:45.307Z,13.95
2023-04-20T21:32:47.428Z,12.82
2023-04-20T21:34:49.655Z,13.52
2023-04-20T21:36:52.055Z,15.85
2023-04-20T21:38:54.346Z,14.18
2023-04-20T21:40:56.490Z,13.20
2023-04-20T21:42:58.623Z,14.15
2023-04-20T21:45:00.811Z,13.27
2023-04-20T21:47:02.966Z,14.25
2023-04-20T21:49:05.404Z,13.65
2023-04-20T21:51:07.556Z,13.05
2023-04-20T21:53:09.751Z,12.27
2023-04-20T21:55:11.949Z,13.85
2023-04-20T21:57:14.100Z,13.13
2023-04-20T21:59:16.267Z,14.35
2023-04-20T22:01:18.509Z,13.80
2023-04-20T22:03:20.889Z,13.30
2023-04-20T22:05:23.380Z,12.05
2023-04-20T22:07:27.476Z,13.00
2023-04-20T22:09:30.138Z,14.13
2023-04-20T22:11:36.395Z,12.73
2023-04-20T22:13:38.608Z,13.40
2023-04-20T22:15:40.805Z,12.32
2023-04-20T22:17:46.629Z,14.18
2023-04-20T22:19:48.875Z,13.75
2023-04-20T22:21:51.073Z,12.93
2023-04-20T22:23:53.363Z,13.10
2023-04-20T22:25:55.736Z,11.23
2023-04-20T22:27:58.073Z,13.05
2023-04-20T22:30:00.685Z,12.25
2023-04-20T22:32:02.871Z,11.38
2023-04-20T22:34:05.017Z,11.73
2023-04-20T22:36:07.525Z,13.73
2023-04-20T22:38:09.678Z,11.38
2023-04-20T22:40:12.893Z,15.70
2023-04-20T22:42:15.242Z,12.15
2023-04-20T22:44:17.448Z,14.07
2023-04-20T22:46:19.832Z,12.07
2023-04-20T22:48:22.292Z,14.48
2023-04-20T22:50:24.634Z,13.45
2023-04-20T22:52:26.790Z,13.80
2023-04-20T22:54:29.001Z,13.13
2023-04-20T22:56:32.023Z,13.50
2023-04-20T22:58:34.459Z,13.60
2023-04-20T23:00:36.634Z,12.85
2023-04-20T23:02:38.975Z,13.40
2023-04-20T23:04:41.383Z,13.10
2023-04-20T23:06:43.961Z,16.65
2023-04-20T23:10:48.961Z,14.65
2023-04-20T23:12:54.745Z,15.60
2023-04-20T23:15:00.502Z,14.35
2023-04-20T23:17:02.822Z,14.70
2023-04-20T23:19:05.034Z,17.48
2023-04-20T23:21:07.187Z,17.98
2023-04-20T23:23:10.762Z,15.50
2023-04-20T23:25:12.962Z,17.73
2023-04-20T23:27:15.217Z,16.88
2023-04-20T23:29:17.612Z,17.65
2023-04-20T23:31:20.567Z,18.83
2023-04-20T23:33:22.795Z,18.85
2023-04-20T23:35:24.938Z,19.73
2023-04-20T23:37:27.127Z,21.77
2023-04-20T23:39:29.381Z,19.35
2023-04-20T23:41:31.759Z,19.27
2023-04-20T23:43:33.942Z,18.50
2023-04-20T23:45:36.505Z,20.38
2023-04-20T23:47:38.828Z,20.48
2023-04-20T23:49:41.087Z,21.27
2023-04-20T23:51:43.393Z,22.45
2023-04-20T23:53:45.703Z,24.27
2023-04-20T23:55:51.761Z,21.77
2023-04-20T23:57:53.969Z,21.83
2023-04-20T23:59:56.214Z,21.85
